Flight Track Log - Related Links

Times and Time Zones

All times are in EDT time to prevent confusion due to time zone crossing. See the AIP5009 flight status page for this flight to view local times or setup timezone preferences in your user account.

Time Position Orientation Groundspeed Altitude Reporting Facility
EDT Latitude Longitude Course Direction KTS MPH feet Rate Location/Type
Wed 06:12:10 AM 46.9278 -114.1125 104° East 101 116 4,100  Level Salt Center
Wed 06:13:10 AM 46.9047 -114.1400 219° Southwest 151 174 7,200 2,850 Climbing Salt Center
Wed 06:14:10 AM 46.8844 -114.0756 115° Southeast 181 208 9,800 2,450 Climbing Salt Center
Wed 06:15:10 AM 46.8678 -114.0058 109° East 185 213 12,100 2,132 Climbing Salt Center
Wed 06:16:00 AM 46.8199 -113.5386 106° East  Level Estimated
Wed 06:16:11 AM 46.8519 -113.9308 107° East 193 222 14,100  Level Salt Center
Wed 06:17:00 AM 46.8036 -113.4467 104° East  Level Estimated
Wed 06:17:11 AM 46.8378 -113.8428 103° East 206 237 16,200  Level Salt Center
Wed 06:18:11 AM 46.8250 -113.7611 103° East 208 239 17,900 1,700 Climbing Salt Center
Wed 06:19:11 AM 46.8092 -113.6794 106° East 210 242 19,600 1,550 Climbing Salt Center
Wed 06:20:11 AM 46.7972 -113.6000 102° East 220 253 21,000 1,488 Climbing Salt Center
Wed 06:21:12 AM 46.7803 -113.5092 105° East 231 266 22,600 1,041 Climbing Salt Center
Wed 06:22:12 AM 46.7656 -113.4136 103° East 246 283 23,100 250 Climbing Salt Center
Wed 06:23:12 AM 46.7467 -113.3031 104° East 278 320 23,100 -100 Level Salt Center
Wed 06:24:12 AM 46.7300 -113.1850 102° East 295 339 22,900 -99 Descending Salt Center
Wed 06:25:13 AM 46.7136 -113.0689 102° East 295 339 22,900  Level Salt Center
Wed 06:26:13 AM 46.6956 -112.9531 103° East 294 338 22,900  Level Salt Center
Wed 06:27:13 AM 46.6828 -112.8386 99° East 289 333 22,900  Level Salt Center
Wed 06:28:13 AM 46.6656 -112.7219 102° East 292 336 22,900  Level Salt Center
Wed 06:29:13 AM 46.6531 -112.6053 99° East 293 337 22,900  Level Salt Center
Wed 06:30:14 AM 46.6292 -112.4931 107° East 291 335 22,900 50 Level Salt Center
Wed 06:31:14 AM 46.6056 -112.3803 107° East 292 336 23,000  Climbing Salt Center
Wed 06:32:14 AM 46.5844 -112.2681 105° East 291 335 22,900  Descending Salt Center
Wed 06:33:14 AM 46.5575 -112.1586 110° East 289 333 23,000 50 Climbing Salt Center
Wed 06:34:14 AM 46.5342 -112.0472 107° East 291 335 23,000  Level Salt Center
Wed 06:35:15 AM 46.4992 -111.9453 116° Southeast 283 326 23,000  Level Salt Center
Wed 06:36:15 AM 46.4781 -111.8331 105° East 286 329 23,000  Level Salt Center
Wed 06:37:15 AM 46.4656 -111.7208 99° East 285 328 23,000  Level Salt Center
Wed 06:38:15 AM 46.4439 -111.6097 106° East 287 330 23,000  Level Salt Center
Wed 06:39:15 AM 46.4111 -111.4825 110° East 285 328 23,000  Level Salt Center
Wed 06:40:16 AM 46.3894 -111.3694 105° East 287 330 23,000  Level Salt Center
Wed 06:41:16 AM 46.3744 -111.2639 102° East 286 329 23,000  Level Salt Center
Wed 06:42:16 AM 46.3508 -111.1517 107° East 290 334 23,000  Level Salt Center
Wed 06:43:16 AM 46.3247 -111.0422 109° East 285 328 23,000  Level Salt Center
Wed 06:44:16 AM 46.3078 -110.9317 102° East 285 328 23,000  Level Salt Center
Wed 06:45:17 AM 46.3000 -110.8158 96° East 289 333 23,000  Level Salt Center
Wed 06:46:17 AM 46.2606 -110.7211 121° Southeast 280 322 23,000 -50 Level Salt Center
Wed 06:47:17 AM 46.2308 -110.6156 112° Southeast 286 329 22,900 -50 Descending Salt Center
Wed 06:48:17 AM 46.2172 -110.5083 100° East 282 325 22,900  Level Salt Center
Wed 06:49:17 AM 46.1939 -110.3972 107° East 282 325 22,900  Level Salt Center
Wed 06:50:18 AM 46.1642 -110.3031 114° Southeast 287 330 22,900 -198 Level Salt Center
Wed 06:51:18 AM 46.1422 -110.1797 104° East 284 327 22,500 -550 Descending Salt Center
Wed 06:52:18 AM 46.1256 -110.0686 102° East 291 335 21,800 -700 Descending Salt Center
Wed 06:53:18 AM 46.1081 -109.9586 103° East 294 338 21,100 -694 Descending Salt Center
Wed 06:54:19 AM 46.0875 -109.8489 105° East 295 339 20,400 -744 Descending Salt Center
Wed 06:55:19 AM 46.0706 -109.7233 101° East 293 337 19,600 -700 Descending Salt Center
Wed 06:56:19 AM 46.0481 -109.6128 106° East 291 335 19,000 -750 Descending Salt Center
Wed 06:57:19 AM 46.0253 -109.4925 105° East 292 336 18,100 -800 Descending Salt Center
Wed 06:58:19 AM 46.0064 -109.3789 103° East 295 339 17,400 -744 Descending Salt Center
Wed 06:59:20 AM 45.9861 -109.2669 105° East 292 336 16,600 -1,091 Descending Salt Center
Wed 07:00:20 AM 45.9697 -109.1533 102° East 295 339 15,200 -1,350 Descending Salt Center
Wed 07:01:20 AM 45.9511 -109.0386 103° East 298 343 13,900 -1,400 Descending Salt Center
Wed 07:02:20 AM 45.9289 -108.9261 106° East 296 341 12,400 -1,835 Descending Salt Center
Wed 07:03:21 AM 45.9056 -108.8039 105° East 295 339 10,200 -2,083 Descending Salt Center
Wed 07:04:21 AM 45.8828 -108.6950 107° East 290 334 8,200 -2,000 Descending Salt Center
Wed 07:05:21 AM 45.8572 -108.5917 110° East 281 323 6,200 -1,550 Descending Salt Center
Wed 07:06:21 AM 45.8356 -108.5061 110° East 231 266 5,100 -1,250 Descending Salt Center
Wed 07:07:21 AM 45.8103 -108.5261 209° Southwest 138 159 3,700 -1,400 Descending Salt Center
Wed 07:09:00 AM 45.8000 -108.5333 110° East  Level FlightAware
Wed 07:16:00 AM 45.8077 -108.5429 110° East  Level Estimated

Login

Don't have an account? Register now (free) for customized features, flight alerts, and more!